createdAt,value
2018-12-27T10:14:51.009Z,13.97
2018-12-27T10:19:53.189Z,13.47
2018-12-27T10:24:55.225Z,14.03
2018-12-27T10:29:57.361Z,13.73
2018-12-27T10:34:59.343Z,13.27
2018-12-27T10:40:01.371Z,13.53
2018-12-27T10:45:03.991Z,12.43
2018-12-27T10:50:07.191Z,12.13
2018-12-27T10:55:09.211Z,11.53
2018-12-27T11:00:11.499Z,12.47
2018-12-27T11:05:13.524Z,10.80
2018-12-27T11:10:15.496Z,10.00
2018-12-27T11:15:17.437Z,8.93
2018-12-27T11:20:19.334Z,10.30
2018-12-27T11:25:21.266Z,10.27
2018-12-27T11:30:23.199Z,10.00
2018-12-27T11:35:25.106Z,10.07
2018-12-27T11:40:27.084Z,9.27
2018-12-27T11:45:29.028Z,9.17
2018-12-27T11:50:31.642Z,8.77
2018-12-27T11:55:33.550Z,8.97
2018-12-27T12:00:35.510Z,8.93
2018-12-27T12:05:37.428Z,8.20
2018-12-27T12:10:39.486Z,8.57
2018-12-27T12:15:41.580Z,8.50
2018-12-27T12:20:43.533Z,7.40
2018-12-27T12:25:45.492Z,7.13
2018-12-27T12:30:47.521Z,7.17
2018-12-27T12:35:49.531Z,7.00
2018-12-27T12:40:51.472Z,7.43
2018-12-27T12:45:53.406Z,7.60
2018-12-27T12:50:55.703Z,7.47
2018-12-27T12:55:57.621Z,7.00
2018-12-27T13:00:59.886Z,7.37
2018-12-27T13:06:01.896Z,7.00
2018-12-27T13:11:03.860Z,7.03
2018-12-27T13:16:05.791Z,7.23
2018-12-27T13:21:09.271Z,6.77
2018-12-27T13:26:11.316Z,7.27
2018-12-27T13:31:13.259Z,7.73
2018-12-27T13:36:15.298Z,6.63
2018-12-27T13:41:17.200Z,7.63
2018-12-27T13:46:19.169Z,7.23
2018-12-27T13:51:21.510Z,6.00
2018-12-27T13:56:23.489Z,7.03
2018-12-27T14:01:25.550Z,6.17
2018-12-27T14:06:32.704Z,6.40
2018-12-27T14:11:31.609Z,7.27
2018-12-27T14:16:33.569Z,6.80
2018-12-27T14:21:35.526Z,7.20
2018-12-27T14:26:37.459Z,6.40
2018-12-27T14:31:39.518Z,6.50
2018-12-27T14:36:41.486Z,6.57
2018-12-27T14:41:43.449Z,6.77
2018-12-27T14:46:45.512Z,7.03
2018-12-27T14:51:47.539Z,6.90
2018-12-27T14:56:49.580Z,7.30
2018-12-27T15:01:51.664Z,7.37
2018-12-27T15:06:53.609Z,8.57
2018-12-27T15:11:55.522Z,7.47
2018-12-27T15:16:57.513Z,7.63
2018-12-27T15:21:59.466Z,6.63
2018-12-27T15:27:01.418Z,7.93
2018-12-27T15:32:03.464Z,7.57
2018-12-27T15:37:05.405Z,7.90
2018-12-27T15:42:07.359Z,7.77
2018-12-27T15:47:09.318Z,7.10
2018-12-27T15:52:11.349Z,7.60
2018-12-27T15:57:13.711Z,7.70
2018-12-27T16:02:15.669Z,8.43
2018-12-27T16:07:17.594Z,6.90
2018-12-27T16:12:19.676Z,7.30
2018-12-27T16:17:22.283Z,7.90
2018-12-27T16:22:24.254Z,7.33
2018-12-27T16:27:26.215Z,7.77
2018-12-27T16:32:28.153Z,8.70
2018-12-27T16:37:30.190Z,7.93
2018-12-27T16:42:32.262Z,7.77
2018-12-27T16:47:34.172Z,8.43
2018-12-27T16:52:36.074Z,8.07
2018-12-27T16:57:38.282Z,9.03
2018-12-27T17:02:40.603Z,8.50
2018-12-27T17:07:42.742Z,8.40
2018-12-27T17:12:45.243Z,7.60
2018-12-27T17:17:47.555Z,8.90
2018-12-27T17:22:49.609Z,8.20
2018-12-27T17:27:51.804Z,7.97
2018-12-27T17:32:54.880Z,8.80
2018-12-27T17:37:56.785Z,8.90
2018-12-27T17:42:59.230Z,7.70
2018-12-27T17:48:01.151Z,8.37
2018-12-27T17:53:03.115Z,8.67
2018-12-27T17:58:05.148Z,8.33
2018-12-27T18:03:07.050Z,7.97
2018-12-27T18:08:09.008Z,7.50
2018-12-27T18:13:11.159Z,7.43
2018-12-27T18:18:13.132Z,6.90
2018-12-27T18:23:15.184Z,6.27
2018-12-27T18:28:17.162Z,6.27
2018-12-27T18:33:19.059Z,6.73
2018-12-27T18:38:21.129Z,7.20
2018-12-27T18:43:23.048Z,8.00
2018-12-27T18:48:24.970Z,12.20
2018-12-27T18:53:27.454Z,11.60
2018-12-27T18:58:29.399Z,15.10
2018-12-27T19:03:31.368Z,12.80
2018-12-27T19:08:33.330Z,11.50
2018-12-27T19:13:35.257Z,12.00
2018-12-27T19:18:43.539Z,11.77
2018-12-27T19:23:45.632Z,10.97
2018-12-27T19:28:47.668Z,11.67
2018-12-27T19:33:49.616Z,11.63
2018-12-27T19:38:51.527Z,12.30
2018-12-27T19:43:53.471Z,11.67
2018-12-27T19:48:55.464Z,11.00
2018-12-27T19:53:57.495Z,12.40
2018-12-27T19:58:59.462Z,12.37
2018-12-27T20:04:01.476Z,12.50
2018-12-27T20:09:05.748Z,15.43
2018-12-27T20:14:07.734Z,10.67
2018-12-27T20:19:11.086Z,15.13
2018-12-27T20:24:14.040Z,24.80
2018-12-27T20:29:17.585Z,25.43
2018-12-27T20:34:19.539Z,18.37
2018-12-27T20:39:21.452Z,23.00
2018-12-27T20:44:23.386Z,13.37
2018-12-27T20:49:25.954Z,11.90
2018-12-27T20:54:28.589Z,12.77
2018-12-27T20:59:31.485Z,14.27
2018-12-27T21:04:34.350Z,13.87
2018-12-27T21:09:36.730Z,13.43
2018-12-27T21:14:39.139Z,12.17
2018-12-27T21:19:43.950Z,12.90
2018-12-27T21:24:45.894Z,12.60
2018-12-27T21:29:47.793Z,12.97
2018-12-27T21:34:50.310Z,11.83
2018-12-27T21:39:52.608Z,11.93
2018-12-27T21:44:55.173Z,11.67
2018-12-27T21:49:57.097Z,10.70
2018-12-27T21:54:59.212Z,10.77
2018-12-27T22:00:08.958Z,10.63
2018-12-27T22:05:14.997Z,11.30
2018-12-27T22:10:30.266Z,10.07
2018-12-27T22:15:49.682Z,10.13
2018-12-27T22:21:09.986Z,10.33
2018-12-27T22:26:42.219Z,10.43
2018-12-27T22:31:50.940Z,11.10
2018-12-27T22:36:54.224Z,11.07
2018-12-27T22:41:57.154Z,12.70
2018-12-27T22:46:59.504Z,11.63
2018-12-27T22:52:01.816Z,11.47
2018-12-27T22:57:03.723Z,11.50
2018-12-27T23:02:10.654Z,11.23
2018-12-27T23:07:13.554Z,11.60
2018-12-27T23:12:15.468Z,10.50
2018-12-27T23:17:18.689Z,10.50
2018-12-27T23:22:21.221Z,10.63
2018-12-27T23:27:24.406Z,11.23
2018-12-27T23:32:27.438Z,11.67
2018-12-27T23:37:29.362Z,11.10
2018-12-27T23:42:31.455Z,11.50
2018-12-27T23:47:34.722Z,10.50
2018-12-27T23:52:36.659Z,10.67
2018-12-27T23:57:38.851Z,10.70
